createdAt,value
2017-10-17T00:01:25.580Z,63.80
2017-10-17T00:03:59.255Z,64.00
2017-10-17T00:06:32.995Z,64.70
2017-10-17T00:09:06.793Z,64.60
2017-10-17T00:11:40.612Z,64.60
2017-10-17T00:14:14.304Z,64.70
2017-10-17T00:16:51.473Z,64.60
2017-10-17T00:19:26.035Z,63.70
2017-10-17T00:21:59.605Z,63.60
2017-10-17T00:24:33.386Z,62.80
2017-10-17T00:27:08.161Z,62.10
2017-10-17T00:29:41.889Z,61.20
2017-10-17T00:32:15.740Z,61.50
2017-10-17T00:34:50.262Z,59.90
2017-10-17T00:37:24.168Z,59.90
2017-10-17T00:39:57.903Z,59.50
2017-10-17T00:42:31.821Z,59.20
2017-10-17T00:45:05.611Z,59.40
2017-10-17T00:47:39.495Z,59.40
2017-10-17T00:50:13.316Z,59.50
2017-10-17T00:52:47.138Z,59.60
2017-10-17T00:55:20.877Z,59.80
2017-10-17T00:57:54.645Z,60.00
2017-10-17T01:00:28.312Z,59.90
2017-10-17T01:03:01.922Z,60.30
2017-10-17T01:05:36.510Z,60.10
2017-10-17T01:08:10.104Z,60.50
2017-10-17T01:10:44.561Z,60.90
2017-10-17T01:13:20.521Z,61.40
2017-10-17T01:15:55.034Z,61.90
2017-10-17T01:18:28.748Z,61.90
2017-10-17T01:21:04.846Z,62.50
2017-10-17T01:23:48.433Z,63.00
2017-10-17T01:26:22.080Z,63.70
2017-10-17T01:29:00.420Z,64.10
2017-10-17T01:31:35.141Z,64.10
2017-10-17T01:34:10.458Z,64.90
2017-10-17T01:36:44.227Z,64.90
2017-10-17T01:39:18.952Z,65.40
2017-10-17T01:41:52.560Z,65.50
2017-10-17T01:44:36.083Z,65.10
2017-10-17T01:47:09.723Z,65.10
2017-10-17T01:49:46.469Z,65.40
2017-10-17T01:52:23.969Z,65.90
2017-10-17T01:55:00.505Z,66.40
2017-10-17T01:57:36.756Z,67.40
2017-10-17T02:00:13.841Z,67.30
2017-10-17T02:02:48.300Z,67.20
2017-10-17T02:05:21.955Z,67.20
2017-10-17T02:07:55.608Z,67.60
2017-10-17T02:10:29.257Z,67.50
2017-10-17T02:13:03.036Z,67.30
2017-10-17T02:15:36.624Z,67.40
2017-10-17T02:18:26.932Z,67.60
2017-10-17T02:21:31.024Z,67.90
2017-10-17T02:24:08.133Z,68.30
2017-10-17T02:26:42.933Z,68.50
2017-10-17T02:29:30.530Z,68.60
2017-10-17T02:32:04.266Z,69.10
2017-10-17T02:34:40.469Z,70.10
2017-10-17T02:37:14.164Z,70.30
2017-10-17T02:39:48.756Z,70.70
2017-10-17T02:42:23.308Z,70.70
2017-10-17T02:44:56.973Z,70.70
2017-10-17T02:47:31.726Z,70.80
2017-10-17T02:50:06.725Z,70.80
2017-10-17T02:52:43.404Z,71.00
2017-10-17T02:55:18.043Z,71.00
2017-10-17T02:57:51.775Z,70.90
2017-10-17T03:00:25.528Z,71.10
2017-10-17T03:02:59.887Z,71.60
2017-10-17T03:05:34.541Z,71.40
2017-10-17T03:08:11.520Z,71.50
2017-10-17T03:10:47.132Z,71.50
2017-10-17T03:13:23.873Z,72.00
2017-10-17T03:15:59.124Z,72.40
2017-10-17T03:18:33.117Z,73.00
2017-10-17T03:21:23.437Z,73.00
2017-10-17T03:23:58.121Z,73.60
2017-10-17T03:26:31.799Z,73.90
2017-10-17T03:29:05.572Z,73.60
2017-10-17T03:31:39.389Z,73.60
2017-10-17T03:34:20.906Z,73.60
2017-10-17T03:37:01.949Z,73.00
2017-10-17T03:39:37.804Z,72.20
2017-10-17T03:42:13.390Z,72.10
2017-10-17T03:44:50.913Z,71.90
2017-10-17T03:47:40.542Z,72.00
2017-10-17T03:50:15.934Z,72.10
2017-10-17T03:52:50.599Z,72.40
2017-10-17T03:55:24.372Z,72.60
2017-10-17T03:58:00.743Z,72.60
2017-10-17T04:00:34.545Z,72.60
2017-10-17T04:03:08.360Z,72.90
2017-10-17T04:05:45.017Z,73.30
2017-10-17T04:08:25.743Z,73.30
2017-10-17T04:11:02.133Z,73.60
2017-10-17T04:13:38.428Z,74.20
2017-10-17T04:16:32.803Z,74.20
2017-10-17T04:19:11.241Z,74.60
2017-10-17T04:21:48.425Z,74.60
2017-10-17T04:24:25.612Z,74.40
2017-10-17T04:27:16.141Z,74.70
2017-10-17T04:29:57.828Z,74.80
2017-10-17T04:32:39.965Z,75.80
2017-10-17T04:35:16.557Z,76.00
2017-10-17T04:37:51.175Z,76.50
2017-10-17T04:40:28.769Z,76.70
2017-10-17T04:43:15.155Z,76.30
2017-10-17T04:45:50.744Z,76.20
2017-10-17T04:48:46.850Z,75.80
2017-10-17T04:51:28.208Z,75.60
2017-10-17T04:57:13.697Z,74.80
2017-10-17T05:00:10.121Z,74.80
2017-10-17T05:03:01.440Z,74.00
2017-10-17T05:05:53.320Z,74.00
2017-10-17T05:08:47.710Z,73.50
2017-10-17T05:11:24.201Z,72.80
2017-10-17T05:16:58.876Z,71.20
2017-10-17T05:19:55.195Z,71.40
2017-10-17T05:22:39.092Z,71.40
2017-10-17T05:25:15.316Z,71.50
2017-10-17T05:28:07.525Z,71.80
2017-10-17T05:30:49.759Z,71.70
2017-10-17T05:33:40.944Z,71.60
2017-10-17T05:36:14.614Z,71.40
2017-10-17T05:38:48.470Z,71.40
2017-10-17T05:41:22.182Z,71.40
2017-10-17T05:44:04.604Z,71.40
2017-10-17T05:46:38.345Z,71.40
2017-10-17T05:49:28.494Z,71.20
2017-10-17T05:52:02.239Z,72.00
2017-10-17T05:54:36.091Z,71.90
2017-10-17T05:57:09.902Z,71.90
2017-10-17T05:59:43.744Z,72.00
2017-10-17T06:02:17.537Z,71.90
2017-10-17T06:04:51.312Z,71.40
2017-10-17T06:07:25.094Z,71.40
2017-10-17T06:09:58.816Z,71.40
2017-10-17T06:12:32.503Z,71.40
2017-10-17T06:15:06.256Z,71.40
2017-10-17T06:17:40.742Z,71.40
2017-10-17T06:20:14.526Z,71.40
2017-10-17T06:22:48.410Z,71.40
2017-10-17T06:25:22.962Z,71.40
2017-10-17T06:27:56.613Z,71.40
2017-10-17T06:30:30.280Z,71.40
2017-10-17T06:33:04.978Z,71.40
2017-10-17T06:35:38.737Z,71.60
2017-10-17T06:38:12.523Z,71.60
2017-10-17T06:40:46.209Z,71.60
2017-10-17T06:43:19.984Z,71.60
2017-10-17T06:45:54.522Z,71.60
2017-10-17T06:48:28.254Z,71.60
2017-10-17T06:51:01.947Z,71.70
2017-10-17T06:53:37.416Z,71.10
2017-10-17T06:56:11.117Z,70.80
2017-10-17T06:58:45.609Z,70.10
2017-10-17T07:01:19.350Z,70.00
2017-10-17T07:03:53.851Z,69.90
2017-10-17T07:06:28.349Z,69.40
2017-10-17T07:09:02.800Z,69.40
2017-10-17T07:11:36.970Z,69.10
2017-10-17T07:14:10.804Z,68.60
2017-10-17T07:16:44.559Z,68.90
2017-10-17T07:19:18.206Z,67.80
2017-10-17T07:21:51.883Z,67.50
2017-10-17T07:24:25.657Z,67.10
2017-10-17T07:26:59.437Z,66.90
2017-10-17T07:29:33.200Z,66.70
2017-10-17T07:32:06.950Z,66.20
2017-10-17T07:34:41.558Z,65.80
2017-10-17T07:37:15.310Z,65.80
2017-10-17T07:39:48.901Z,65.10
2017-10-17T07:42:22.705Z,64.60
2017-10-17T07:44:56.449Z,64.70
2017-10-17T07:47:30.994Z,64.60
2017-10-17T07:50:05.530Z,64.80
2017-10-17T07:52:39.250Z,64.70
2017-10-17T07:55:12.939Z,64.80
2017-10-17T07:57:46.742Z,65.00
2017-10-17T08:00:20.313Z,64.50
2017-10-17T08:02:54.171Z,64.50
2017-10-17T08:05:28.672Z,64.50
2017-10-17T08:08:02.345Z,64.50
2017-10-17T08:10:36.185Z,64.60
2017-10-17T08:13:09.986Z,64.20
2017-10-17T08:15:43.681Z,64.30
2017-10-17T08:18:17.416Z,64.20
2017-10-17T08:20:51.053Z,64.80
2017-10-17T08:23:24.834Z,64.10
2017-10-17T08:25:58.700Z,64.40
2017-10-17T08:28:32.416Z,64.10
2017-10-17T08:31:06.143Z,63.90
2017-10-17T08:33:39.812Z,64.10
2017-10-17T08:36:13.617Z,63.70
2017-10-17T08:38:47.221Z,63.30
2017-10-17T08:41:20.890Z,63.00
2017-10-17T08:43:55.524Z,62.60
2017-10-17T08:46:29.255Z,62.60
2017-10-17T08:49:03.716Z,62.30
2017-10-17T08:51:37.474Z,61.80
2017-10-17T08:54:11.188Z,60.70
2017-10-17T08:56:46.543Z,61.70
2017-10-17T08:59:20.192Z,60.90
2017-10-17T09:01:53.873Z,59.60
2017-10-17T09:04:27.700Z,59.90
2017-10-17T09:07:01.461Z,58.90
2017-10-17T09:09:35.179Z,59.00
2017-10-17T09:12:09.682Z,58.30
2017-10-17T09:14:43.237Z,58.30
2017-10-17T09:17:17.020Z,58.20
2017-10-17T09:19:50.734Z,59.00
2017-10-17T09:22:24.486Z,58.40
2017-10-17T09:24:58.233Z,58.90
2017-10-17T09:27:32.790Z,59.20
2017-10-17T09:30:06.624Z,59.20
2017-10-17T09:32:41.260Z,59.20
2017-10-17T09:35:15.269Z,59.40
2017-10-17T09:37:49.028Z,59.10
2017-10-17T09:40:22.737Z,59.50
2017-10-17T09:42:56.525Z,59.30
2017-10-17T09:45:31.102Z,59.70
2017-10-17T09:48:04.882Z,59.80
2017-10-17T09:50:38.716Z,59.80
2017-10-17T09:53:12.384Z,60.60
2017-10-17T09:55:46.045Z,61.00
2017-10-17T09:58:19.707Z,61.40
2017-10-17T10:00:53.507Z,61.70
2017-10-17T10:03:27.156Z,61.80
2017-10-17T10:06:00.861Z,61.60
2017-10-17T10:08:34.641Z,61.50
2017-10-17T10:11:08.424Z,61.80
2017-10-17T10:13:42.089Z,61.80
2017-10-17T10:16:15.718Z,61.70
2017-10-17T10:18:49.527Z,62.00
2017-10-17T10:21:23.127Z,61.90
2017-10-17T10:23:56.685Z,62.10
2017-10-17T10:26:30.456Z,62.00
2017-10-17T10:29:04.925Z,61.60
2017-10-17T10:31:38.685Z,61.60
2017-10-17T10:34:12.739Z,61.40
2017-10-17T10:36:46.484Z,61.10
2017-10-17T10:39:20.209Z,60.70
2017-10-17T10:41:53.893Z,61.00
2017-10-17T10:44:27.593Z,61.00
2017-10-17T10:47:01.290Z,60.80
2017-10-17T10:49:34.989Z,60.10
2017-10-17T10:52:08.812Z,60.50
2017-10-17T10:54:42.388Z,60.50
2017-10-17T10:57:16.141Z,60.30
2017-10-17T10:59:49.875Z,60.50
2017-10-17T11:02:23.579Z,60.10
2017-10-17T11:04:57.209Z,60.00
2017-10-17T11:07:30.985Z,59.80
2017-10-17T11:10:04.622Z,60.00
2017-10-17T11:12:38.389Z,59.30
2017-10-17T11:15:12.105Z,58.80
2017-10-17T11:17:45.876Z,58.80
2017-10-17T11:20:19.867Z,58.70
2017-10-17T11:22:53.554Z,58.30
2017-10-17T11:25:29.207Z,57.60
2017-10-17T11:28:02.921Z,58.10
2017-10-17T11:30:36.528Z,58.00
2017-10-17T11:33:10.642Z,58.50
2017-10-17T11:35:44.225Z,57.90
2017-10-17T11:38:18.014Z,57.90
2017-10-17T11:41:03.674Z,57.90
2017-10-17T11:43:50.074Z,58.10
2017-10-17T11:46:23.649Z,58.10
2017-10-17T11:48:57.346Z,58.00
2017-10-17T11:51:31.109Z,58.00
2017-10-17T11:54:04.782Z,58.00
2017-10-17T11:56:38.569Z,57.70
2017-10-17T11:59:12.364Z,57.70
2017-10-17T12:01:46.249Z,57.90
2017-10-17T12:04:19.917Z,57.90
2017-10-17T12:06:53.774Z,58.00
2017-10-17T12:09:27.463Z,57.90
2017-10-17T12:12:01.255Z,58.80
2017-10-17T12:14:35.088Z,58.20
2017-10-17T12:17:08.880Z,58.30
2017-10-17T12:19:42.641Z,57.90
2017-10-17T12:22:16.421Z,58.20
2017-10-17T12:24:50.060Z,58.80
2017-10-17T12:27:23.817Z,57.80
2017-10-17T12:29:57.759Z,58.30
2017-10-17T12:32:33.100Z,57.00
2017-10-17T12:35:07.437Z,57.00
2017-10-17T12:37:41.074Z,56.90
2017-10-17T12:40:14.841Z,57.10
2017-10-17T12:42:51.842Z,56.90
2017-10-17T12:45:25.462Z,56.90
2017-10-17T12:47:59.909Z,56.40
2017-10-17T12:50:33.683Z,55.70
2017-10-17T12:53:07.242Z,55.70
2017-10-17T12:55:41.013Z,55.70
2017-10-17T12:58:14.817Z,55.40
2017-10-17T13:00:48.534Z,55.20
2017-10-17T13:03:22.321Z,54.60
2017-10-17T13:05:55.892Z,55.80
2017-10-17T13:08:30.296Z,56.50
2017-10-17T13:11:03.837Z,56.50
2017-10-17T13:13:38.448Z,55.90
2017-10-17T13:16:12.021Z,55.30
2017-10-17T13:18:45.887Z,54.00
2017-10-17T13:21:19.605Z,53.30
2017-10-17T13:23:53.304Z,53.30
2017-10-17T13:26:27.030Z,53.00
2017-10-17T13:29:01.449Z,52.90
2017-10-17T13:31:35.986Z,54.50
2017-10-17T13:34:31.021Z,54.50
2017-10-17T13:40:08.188Z,53.70
2017-10-17T13:42:41.957Z,54.20
2017-10-17T13:45:15.636Z,54.30
2017-10-17T13:47:50.897Z,54.30
2017-10-17T13:50:24.519Z,54.20
2017-10-17T13:52:58.622Z,54.40
2017-10-17T13:55:32.462Z,54.70
2017-10-17T13:58:06.273Z,54.70
2017-10-17T14:00:40.024Z,55.30
2017-10-17T14:03:13.812Z,55.00
2017-10-17T14:05:47.544Z,54.60
2017-10-17T14:08:21.301Z,54.50
2017-10-17T14:10:55.020Z,54.80
2017-10-17T14:13:28.752Z,54.90
2017-10-17T14:16:02.530Z,55.30
2017-10-17T14:18:36.330Z,54.70
2017-10-17T14:21:10.750Z,54.50
2017-10-17T14:23:45.235Z,54.20
2017-10-17T14:26:18.772Z,54.20
2017-10-17T14:28:52.553Z,54.50
2017-10-17T14:31:26.260Z,54.80
2017-10-17T14:34:00.021Z,54.30
2017-10-17T14:36:33.759Z,54.50
2017-10-17T14:39:09.185Z,55.40
2017-10-17T14:41:43.038Z,55.90
2017-10-17T14:44:16.775Z,56.50
2017-10-17T14:46:50.457Z,57.00
2017-10-17T14:49:24.196Z,57.40
2017-10-17T14:51:58.237Z,57.60
2017-10-17T14:54:31.924Z,57.80
2017-10-17T14:57:05.538Z,58.40
2017-10-17T14:59:39.243Z,58.50
2017-10-17T15:02:15.935Z,58.80
2017-10-17T15:04:49.517Z,58.60
2017-10-17T15:07:23.210Z,58.90
2017-10-17T15:09:56.849Z,59.40
2017-10-17T15:12:30.613Z,59.60
2017-10-17T15:15:04.340Z,59.40
2017-10-17T15:17:38.079Z,59.50
2017-10-17T15:20:11.850Z,59.70
2017-10-17T15:22:45.594Z,60.10
2017-10-17T15:25:19.284Z,60.50
2017-10-17T15:27:52.894Z,60.90
2017-10-17T15:30:26.643Z,61.60
2017-10-17T15:33:00.200Z,62.20
2017-10-17T15:35:33.985Z,63.10
2017-10-17T15:38:07.776Z,63.60
2017-10-17T15:40:42.249Z,64.30
2017-10-17T15:43:16.741Z,65.80
2017-10-17T15:45:51.504Z,65.80
2017-10-17T15:48:25.980Z,66.00
2017-10-17T15:50:59.922Z,66.00
2017-10-17T15:53:33.547Z,66.90
2017-10-17T15:56:07.209Z,67.20
2017-10-17T15:58:41.373Z,67.60
2017-10-17T16:01:15.938Z,68.70
2017-10-17T16:03:49.495Z,68.70
2017-10-17T16:06:23.503Z,69.30
2017-10-17T16:08:58.412Z,70.30
2017-10-17T16:11:32.243Z,71.50
2017-10-17T16:14:05.948Z,72.10
2017-10-17T16:16:39.626Z,72.50
2017-10-17T16:19:13.290Z,73.50
2017-10-17T16:21:47.773Z,73.40
2017-10-17T16:24:22.305Z,75.10
2017-10-17T16:26:55.961Z,74.40
2017-10-17T16:29:29.692Z,74.80
2017-10-17T16:32:03.448Z,75.10
2017-10-17T16:34:37.253Z,75.80
2017-10-17T16:37:11.047Z,76.50
2017-10-17T16:39:44.902Z,76.60
2017-10-17T16:42:20.125Z,77.00
2017-10-17T16:44:54.805Z,77.00
2017-10-17T16:47:28.750Z,77.00
2017-10-17T16:50:03.163Z,77.40
2017-10-17T16:52:37.034Z,77.40
2017-10-17T16:55:10.879Z,78.00
2017-10-17T16:57:44.612Z,77.90
2017-10-17T17:00:19.292Z,78.20
2017-10-17T17:02:52.930Z,78.20
2017-10-17T17:05:27.412Z,78.30
2017-10-17T17:08:01.952Z,78.40
2017-10-17T17:10:36.589Z,78.40
2017-10-17T17:13:10.275Z,78.60
2017-10-17T17:15:44.053Z,78.70
2017-10-17T17:18:17.897Z,78.90
2017-10-17T17:20:51.541Z,79.30
2017-10-17T17:23:25.336Z,79.70
2017-10-17T17:25:58.980Z,80.10
2017-10-17T17:28:32.751Z,80.00
2017-10-17T17:31:06.511Z,80.20
2017-10-17T17:33:40.294Z,80.30
2017-10-17T17:36:14.842Z,81.00
2017-10-17T17:38:48.653Z,81.00
2017-10-17T17:41:22.216Z,81.00
2017-10-17T17:43:56.041Z,81.00
2017-10-17T17:46:29.876Z,81.60
2017-10-17T17:49:03.556Z,82.10
2017-10-17T17:51:37.882Z,82.70
2017-10-17T17:54:11.601Z,83.10
2017-10-17T17:56:45.766Z,83.50
2017-10-17T17:59:19.364Z,83.60
2017-10-17T18:01:53.173Z,83.80
2017-10-17T18:04:26.904Z,84.00
2017-10-17T18:07:01.364Z,84.10
2017-10-17T18:09:35.137Z,84.10
2017-10-17T18:12:08.951Z,84.30
2017-10-17T18:14:42.675Z,84.50
2017-10-17T18:17:16.266Z,84.70
2017-10-17T18:19:50.853Z,85.00
2017-10-17T18:22:24.543Z,85.00
2017-10-17T18:24:58.325Z,85.10
2017-10-17T18:27:33.127Z,84.60
2017-10-17T18:30:06.828Z,84.90
2017-10-17T18:32:41.190Z,85.80
2017-10-17T18:35:19.068Z,85.20
2017-10-17T18:37:52.645Z,85.70
2017-10-17T18:40:27.023Z,86.10
2017-10-17T18:43:00.621Z,86.70
2017-10-17T18:45:34.376Z,85.90
2017-10-17T18:48:08.109Z,86.10
2017-10-17T18:50:41.760Z,86.40
2017-10-17T18:53:16.164Z,87.20
2017-10-17T18:55:49.990Z,87.10
2017-10-17T18:58:24.838Z,87.60
2017-10-17T19:00:59.532Z,88.00
2017-10-17T19:03:34.645Z,88.00
2017-10-17T19:06:08.554Z,88.00
2017-10-17T19:08:42.198Z,89.00
2017-10-17T19:11:15.966Z,88.40
2017-10-17T19:13:50.638Z,88.50
2017-10-17T19:16:24.295Z,88.50
2017-10-17T19:18:58.213Z,88.40
2017-10-17T19:21:32.015Z,88.40
2017-10-17T19:24:05.744Z,88.30
2017-10-17T19:26:39.521Z,88.30
2017-10-17T19:29:14.052Z,88.20
2017-10-17T19:31:48.718Z,88.30
2017-10-17T19:34:22.501Z,88.20
2017-10-17T19:36:56.189Z,88.20
2017-10-17T19:39:29.867Z,88.30
2017-10-17T19:42:05.081Z,88.40
2017-10-17T19:44:40.643Z,88.70
2017-10-17T19:47:15.632Z,88.80
2017-10-17T19:49:50.054Z,88.40
2017-10-17T19:52:26.831Z,88.70
2017-10-17T19:55:02.110Z,88.40
2017-10-17T19:57:36.534Z,88.40
2017-10-17T20:00:10.622Z,88.20
2017-10-17T20:02:44.513Z,88.50
2017-10-17T20:05:19.347Z,88.80
2017-10-17T20:07:53.767Z,88.90
2017-10-17T20:10:27.558Z,89.00
2017-10-17T20:30:05.179Z,90.00
2017-10-17T20:32:39.712Z,90.10
2017-10-17T20:35:14.133Z,90.10
2017-10-17T20:37:48.598Z,90.10
2017-10-17T20:40:22.290Z,90.20
2017-10-17T20:42:55.937Z,90.20
2017-10-17T20:45:30.625Z,90.20
2017-10-17T20:48:04.285Z,90.20
2017-10-17T20:50:38.041Z,90.10
2017-10-17T20:53:17.435Z,90.10
2017-10-17T20:55:51.079Z,90.10
2017-10-17T20:58:24.784Z,90.10
2017-10-17T21:00:59.252Z,90.10
2017-10-17T21:03:32.995Z,90.20
2017-10-17T21:06:07.553Z,90.20
2017-10-17T21:08:41.118Z,90.20
2017-10-17T21:11:14.888Z,90.30
2017-10-17T21:13:48.556Z,90.40
2017-10-17T21:16:22.894Z,90.40
2017-10-17T21:18:56.670Z,90.40
2017-10-17T21:21:30.521Z,90.40
2017-10-17T21:24:05.097Z,90.50
2017-10-17T21:26:38.972Z,90.40
2017-10-17T21:29:12.747Z,90.60
2017-10-17T21:31:46.568Z,90.70
2017-10-17T21:34:20.428Z,90.70
2017-10-17T21:36:54.154Z,90.70
2017-10-17T21:39:28.942Z,90.70
2017-10-17T21:42:02.781Z,90.60
2017-10-17T21:44:36.564Z,90.70
2017-10-17T21:47:10.590Z,90.80
2017-10-17T21:49:44.396Z,90.80
2017-10-17T21:52:18.986Z,90.80
2017-10-17T21:54:53.565Z,90.70
2017-10-17T21:57:27.392Z,90.70
2017-10-17T22:03:00.937Z,90.70
2017-10-17T22:05:35.381Z,90.90
2017-10-17T22:08:09.904Z,90.80
2017-10-17T22:10:43.666Z,90.80
2017-10-17T22:13:17.985Z,90.80
2017-10-17T22:15:51.916Z,90.90
2017-10-17T22:18:25.662Z,90.90
2017-10-17T22:20:59.540Z,90.90
2017-10-17T22:23:33.291Z,91.00
2017-10-17T22:26:07.093Z,90.90
2017-10-17T22:28:41.008Z,91.00
2017-10-17T22:31:15.669Z,91.00
2017-10-17T22:33:49.291Z,91.00
2017-10-17T22:36:23.090Z,91.00
2017-10-17T22:38:56.940Z,91.00
2017-10-17T22:41:30.623Z,91.10
2017-10-17T22:44:04.338Z,91.00
2017-10-17T22:46:46.596Z,91.00
2017-10-17T22:49:20.364Z,91.00
2017-10-17T22:51:54.102Z,91.40
2017-10-17T22:54:27.765Z,91.10
2017-10-17T22:57:01.426Z,91.10
2017-10-17T22:59:35.188Z,91.10
2017-10-17T23:02:09.064Z,91.10
2017-10-17T23:04:43.678Z,91.00
2017-10-17T23:07:18.271Z,91.00
2017-10-17T23:09:52.055Z,91.10
2017-10-17T23:12:26.733Z,91.10
2017-10-17T23:15:01.289Z,91.10
2017-10-17T23:17:46.907Z,91.10
2017-10-17T23:20:32.663Z,91.20
2017-10-17T23:23:06.495Z,91.20
2017-10-17T23:25:40.931Z,91.20
2017-10-17T23:28:14.693Z,91.20
2017-10-17T23:30:48.357Z,91.20
2017-10-17T23:33:22.278Z,91.10
2017-10-17T23:35:56.865Z,91.20
2017-10-17T23:38:30.545Z,91.20
2017-10-17T23:41:05.108Z,91.30
2017-10-17T23:43:39.552Z,91.30
2017-10-17T23:46:14.170Z,91.20
2017-10-17T23:48:47.899Z,91.20
2017-10-17T23:51:21.663Z,91.20
2017-10-17T23:53:55.491Z,91.20
2017-10-17T23:56:30.262Z,91.20
2017-10-17T23:59:04.633Z,91.20
